sensor_id;sensor_type;location;lat;lon;timestamp;pressure;altitude;pressure_sealevel;temperature;humidity
45621;BME280;31345;51.522;10.702;2023-07-31T00:01:23;98697.44;;;15.86;100.00
45621;BME280;31345;51.522;10.702;2023-07-31T00:03:55;98702.94;;;15.92;100.00
45621;BME280;31345;51.522;10.702;2023-07-31T00:06:28;98703.16;;;16.09;100.00
45621;BME280;31345;51.522;10.702;2023-07-31T00:09:00;98713.78;;;16.17;100.00
45621;BME280;31345;51.522;10.702;2023-07-31T00:11:33;98715.38;;;16.10;100.00
45621;BME280;31345;51.522;10.702;2023-07-31T00:14:05;98703.91;;;16.01;100.00
45621;BME280;31345;51.522;10.702;2023-07-31T00:16:39;98714.88;;;15.97;100.00
45621;BME280;31345;51.522;10.702;2023-07-31T00:19:12;98706.97;;;15.97;100.00
45621;BME280;31345;51.522;10.702;2023-07-31T00:21:43;98706.00;;;15.88;100.00
45621;BME280;31345;51.522;10.702;2023-07-31T00:24:17;98696.91;;;15.82;100.00
45621;BME280;31345;51.522;10.702;2023-07-31T00:26:45;98691.78;;;15.80;100.00
45621;BME280;31345;51.522;10.702;2023-07-31T00:29:18;98686.41;;;15.72;100.00
45621;BME280;31345;51.522;10.702;2023-07-31T00:31:52;98689.00;;;15.82;100.00
45621;BME280;31345;51.522;10.702;2023-07-31T00:34:26;98683.03;;;15.80;100.00
45621;BME280;31345;51.522;10.702;2023-07-31T00:36:59;98690.41;;;15.76;100.00
45621;BME280;31345;51.522;10.702;2023-07-31T00:39:27;98689.59;;;15.66;100.00
45621;BME280;31345;51.522;10.702;2023-07-31T00:41:56;98687.66;;;15.68;100.00
45621;BME280;31345;51.522;10.702;2023-07-31T00:44:23;98689.22;;;15.61;100.00
45621;BME280;31345;51.522;10.702;2023-07-31T00:46:57;98682.13;;;15.61;100.00
45621;BME280;31345;51.522;10.702;2023-07-31T00:49:30;98676.44;;;15.56;100.00
45621;BME280;31345;51.522;10.702;2023-07-31T00:51:59;98673.53;;;15.59;100.00
45621;BME280;31345;51.522;10.702;2023-07-31T00:54:26;98665.34;;;15.62;100.00
45621;BME280;31345;51.522;10.702;2023-07-31T00:56:54;98666.88;;;15.65;100.00
45621;BME280;31345;51.522;10.702;2023-07-31T00:59:27;98656.59;;;15.62;100.00
45621;BME280;31345;51.522;10.702;2023-07-31T01:02:01;98654.50;;;15.65;100.00
45621;BME280;31345;51.522;10.702;2023-07-31T01:04:29;98656.72;;;15.70;100.00
45621;BME280;31345;51.522;10.702;2023-07-31T01:07:11;98645.78;;;15.65;100.00
45621;BME280;31345;51.522;10.702;2023-07-31T01:09:45;98644.97;;;15.54;100.00
45621;BME280;31345;51.522;10.702;2023-07-31T01:12:20;98642.44;;;15.63;100.00
45621;BME280;31345;51.522;10.702;2023-07-31T01:15:02;98634.53;;;15.63;100.00
45621;BME280;31345;51.522;10.702;2023-07-31T01:17:36;98634.44;;;15.54;100.00
45621;BME280;31345;51.522;10.702;2023-07-31T01:20:12;98636.94;;;15.56;100.00
45621;BME280;31345;51.522;10.702;2023-07-31T01:26:04;98620.97;;;15.58;100.00
45621;BME280;31345;51.522;10.702;2023-07-31T01:28:39;98623.91;;;15.54;100.00
45621;BME280;31345;51.522;10.702;2023-07-31T01:31:16;98613.50;;;15.53;100.00
45621;BME280;31345;51.522;10.702;2023-07-31T01:33:53;98615.00;;;15.55;100.00
45621;BME280;31345;51.522;10.702;2023-07-31T01:36:28;98614.31;;;15.63;100.00
45621;BME280;31345;51.522;10.702;2023-07-31T01:39:01;98603.38;;;15.58;100.00
45621;BME280;31345;51.522;10.702;2023-07-31T01:41:32;98602.41;;;15.59;100.00
45621;BME280;31345;51.522;10.702;2023-07-31T01:44:05;98594.34;;;15.61;100.00
45621;BME280;31345;51.522;10.702;2023-07-31T01:46:38;98589.22;;;15.59;100.00
45621;BME280;31345;51.522;10.702;2023-07-31T01:49:10;98586.03;;;15.55;100.00
45621;BME280;31345;51.522;10.702;2023-07-31T01:51:43;98587.16;;;15.53;100.00
45621;BME280;31345;51.522;10.702;2023-07-31T01:54:15;98583.16;;;15.49;100.00
45621;BME280;31345;51.522;10.702;2023-07-31T01:56:49;98575.00;;;15.42;100.00
45621;BME280;31345;51.522;10.702;2023-07-31T01:59:17;98581.50;;;15.48;100.00
45621;BME280;31345;51.522;10.702;2023-07-31T02:01:50;98572.75;;;15.47;100.00
45621;BME280;31345;51.522;10.702;2023-07-31T02:04:17;98566.97;;;15.43;100.00
45621;BME280;31345;51.522;10.702;2023-07-31T02:06:50;98571.41;;;15.43;100.00
45621;BME280;31345;51.522;10.702;2023-07-31T02:09:22;98560.72;;;15.45;100.00
45621;BME280;31345;51.522;10.702;2023-07-31T02:11:51;98559.50;;;15.39;100.00
45621;BME280;31345;51.522;10.702;2023-07-31T02:14:24;98559.63;;;15.37;100.00
45621;BME280;31345;51.522;10.702;2023-07-31T02:16:52;98563.63;;;15.41;100.00
45621;BME280;31345;51.522;10.702;2023-07-31T02:19:24;98564.47;;;15.42;100.00
45621;BME280;31345;51.522;10.702;2023-07-31T02:21:57;98555.03;;;15.49;100.00
45621;BME280;31345;51.522;10.702;2023-07-31T02:24:29;98555.16;;;15.48;100.00
45621;BME280;31345;51.522;10.702;2023-07-31T02:27:05;98558.06;;;15.45;100.00
45621;BME280;31345;51.522;10.702;2023-07-31T02:29:38;98552.81;;;15.45;100.00
45621;BME280;31345;51.522;10.702;2023-07-31T02:32:11;98551.72;;;15.37;100.00
45621;BME280;31345;51.522;10.702;2023-07-31T02:34:44;98544.09;;;15.44;100.00
45621;BME280;31345;51.522;10.702;2023-07-31T02:37:16;98543.50;;;15.50;100.00
45621;BME280;31345;51.522;10.702;2023-07-31T02:39:44;98538.84;;;15.44;100.00
45621;BME280;31345;51.522;10.702;2023-07-31T02:42:18;98536.19;;;15.44;100.00
45621;BME280;31345;51.522;10.702;2023-07-31T02:44:52;98537.69;;;15.47;100.00
45621;BME280;31345;51.522;10.702;2023-07-31T02:47:27;98543.34;;;15.52;100.00
45621;BME280;31345;51.522;10.702;2023-07-31T02:49:54;98540.72;;;15.52;100.00
45621;BME280;31345;51.522;10.702;2023-07-31T02:52:27;98542.50;;;15.51;100.00
45621;BME280;31345;51.522;10.702;2023-07-31T02:54:59;98528.38;;;15.52;100.00
45621;BME280;31345;51.522;10.702;2023-07-31T02:57:28;98529.34;;;15.51;100.00
45621;BME280;31345;51.522;10.702;2023-07-31T03:00:01;98533.94;;;15.49;100.00
45621;BME280;31345;51.522;10.702;2023-07-31T03:02:37;98521.84;;;15.56;100.00
45621;BME280;31345;51.522;10.702;2023-07-31T03:05:05;98523.41;;;15.49;100.00
45621;BME280;31345;51.522;10.702;2023-07-31T03:07:37;98517.00;;;15.52;100.00
45621;BME280;31345;51.522;10.702;2023-07-31T03:10:10;98521.63;;;15.50;100.00
45621;BME280;31345;51.522;10.702;2023-07-31T03:12:40;98519.25;;;15.47;100.00
45621;BME280;31345;51.522;10.702;2023-07-31T03:15:13;98522.78;;;15.55;100.00
45621;BME280;31345;51.522;10.702;2023-07-31T03:17:45;98519.22;;;15.56;100.00
45621;BME280;31345;51.522;10.702;2023-07-31T03:20:18;98514.91;;;15.55;100.00
45621;BME280;31345;51.522;10.702;2023-07-31T03:22:50;98511.53;;;15.63;100.00
45621;BME280;31345;51.522;10.702;2023-07-31T03:25:23;98516.38;;;15.68;100.00
45621;BME280;31345;51.522;10.702;2023-07-31T03:27:52;98508.06;;;15.63;100.00
45621;BME280;31345;51.522;10.702;2023-07-31T03:30:25;98508.06;;;15.63;100.00
45621;BME280;31345;51.522;10.702;2023-07-31T03:32:52;98505.19;;;15.56;100.00
45621;BME280;31345;51.522;10.702;2023-07-31T03:35:25;98512.97;;;15.58;100.00
45621;BME280;31345;51.522;10.702;2023-07-31T03:37:59;98516.56;;;15.56;100.00
45621;BME280;31345;51.522;10.702;2023-07-31T03:40:31;98511.59;;;15.53;100.00
45621;BME280;31345;51.522;10.702;2023-07-31T03:43:06;98501.06;;;15.53;100.00
45621;BME280;31345;51.522;10.702;2023-07-31T03:45:39;98507.59;;;15.49;100.00
45621;BME280;31345;51.522;10.702;2023-07-31T03:48:11;98508.44;;;15.50;100.00
45621;BME280;31345;51.522;10.702;2023-07-31T03:50:44;98505.94;;;15.48;100.00
45621;BME280;31345;51.522;10.702;2023-07-31T03:53:16;98504.13;;;15.49;100.00
45621;BME280;31345;51.522;10.702;2023-07-31T03:55:49;98501.63;;;15.47;100.00
45621;BME280;31345;51.522;10.702;2023-07-31T03:58:24;98496.06;;;15.50;100.00
45621;BME280;31345;51.522;10.702;2023-07-31T04:00:51;98498.41;;;15.53;100.00
45621;BME280;31345;51.522;10.702;2023-07-31T04:03:24;98494.81;;;15.54;100.00
45621;BME280;31345;51.522;10.702;2023-07-31T04:05:54;98501.19;;;15.52;100.00
45621;BME280;31345;51.522;10.702;2023-07-31T04:08:27;98497.06;;;15.49;100.00
45621;BME280;31345;51.522;10.702;2023-07-31T04:10:59;98501.25;;;15.42;100.00
45621;BME280;31345;51.522;10.702;2023-07-31T04:13:33;98507.88;;;15.46;100.00
45621;BME280;31345;51.522;10.702;2023-07-31T04:16:06;98518.13;;;15.49;100.00
45621;BME280;31345;51.522;10.702;2023-07-31T04:18:38;98516.47;;;15.48;100.00
45621;BME280;31345;51.522;10.702;2023-07-31T04:21:06;98518.66;;;15.53;100.00
45621;BME280;31345;51.522;10.702;2023-07-31T04:23:38;98509.25;;;15.50;100.00
45621;BME280;31345;51.522;10.702;2023-07-31T04:26:06;98510.47;;;15.56;100.00
45621;BME280;31345;51.522;10.702;2023-07-31T04:28:40;98505.34;;;15.54;100.00
45621;BME280;31345;51.522;10.702;2023-07-31T04:31:13;98513.25;;;15.54;100.00
45621;BME280;31345;51.522;10.702;2023-07-31T04:33:41;98509.47;;;15.57;100.00
45621;BME280;31345;51.522;10.702;2023-07-31T04:36:14;98498.28;;;15.55;100.00
45621;BME280;31345;51.522;10.702;2023-07-31T04:38:41;98502.28;;;15.59;100.00
45621;BME280;31345;51.522;10.702;2023-07-31T04:41:09;98506.56;;;15.60;100.00
45621;BME280;31345;51.522;10.702;2023-07-31T04:43:43;98505.44;;;15.63;100.00
45621;BME280;31345;51.522;10.702;2023-07-31T04:46:15;98505.97;;;15.66;100.00
45621;BME280;31345;51.522;10.702;2023-07-31T04:48:48;98506.94;;;15.65;100.00
45621;BME280;31345;51.522;10.702;2023-07-31T04:51:21;98510.78;;;15.71;100.00
45621;BME280;31345;51.522;10.702;2023-07-31T04:53:54;98509.81;;;15.72;100.00
45621;BME280;31345;51.522;10.702;2023-07-31T04:56:23;98516.75;;;15.73;100.00
45621;BME280;31345;51.522;10.702;2023-07-31T04:58:52;98515.38;;;15.69;100.00
45621;BME280;31345;51.522;10.702;2023-07-31T05:01:19;98509.66;;;15.74;100.00
45621;BME280;31345;51.522;10.702;2023-07-31T05:03:47;98507.56;;;15.77;100.00
45621;BME280;31345;51.522;10.702;2023-07-31T05:06:19;98506.56;;;15.78;100.00
45621;BME280;31345;51.522;10.702;2023-07-31T05:08:52;98498.53;;;15.80;100.00
45621;BME280;31345;51.522;10.702;2023-07-31T05:11:20;98506.16;;;15.83;100.00
45621;BME280;31345;51.522;10.702;2023-07-31T05:13:47;98506.16;;;15.83;100.00
45621;BME280;31345;51.522;10.702;2023-07-31T05:16:21;98500.72;;;15.85;100.00
45621;BME280;31345;51.522;10.702;2023-07-31T05:18:54;98501.38;;;15.87;100.00
45621;BME280;31345;51.522;10.702;2023-07-31T05:21:26;98506.38;;;15.90;100.00
45621;BME280;31345;51.522;10.702;2023-07-31T05:23:54;98497.63;;;15.89;100.00
45621;BME280;31345;51.522;10.702;2023-07-31T05:26:26;98498.31;;;15.91;100.00
45621;BME280;31345;51.522;10.702;2023-07-31T05:28:59;98492.88;;;15.93;100.00
45621;BME280;31345;51.522;10.702;2023-07-31T05:31:33;98500.66;;;15.94;100.00
45621;BME280;31345;51.522;10.702;2023-07-31T05:34:05;98497.88;;;15.96;100.00
45621;BME280;31345;51.522;10.702;2023-07-31T05:36:38;98502.00;;;15.99;100.00
45621;BME280;31345;51.522;10.702;2023-07-31T05:39:06;98499.53;;;15.97;100.00
45621;BME280;31345;51.522;10.702;2023-07-31T05:41:39;98508.63;;;16.03;100.00
45621;BME280;31345;51.522;10.702;2023-07-31T05:44:12;98504.56;;;16.08;100.00
45621;BME280;31345;51.522;10.702;2023-07-31T05:46:41;98497.16;;;16.12;100.00
45621;BME280;31345;51.522;10.702;2023-07-31T05:49:08;98499.22;;;16.18;100.00
45621;BME280;31345;51.522;10.702;2023-07-31T05:51:41;98490.03;;;16.23;100.00
45621;BME280;31345;51.522;10.702;2023-07-31T05:54:13;98493.47;;;16.23;100.00
45621;BME280;31345;51.522;10.702;2023-07-31T05:56:41;98485.13;;;16.28;100.00
45621;BME280;31345;51.522;10.702;2023-07-31T05:59:14;98490.13;;;16.31;100.00
45621;BME280;31345;51.522;10.702;2023-07-31T06:01:47;98483.53;;;16.35;100.00
45621;BME280;31345;51.522;10.702;2023-07-31T06:04:15;98494.31;;;16.42;100.00
45621;BME280;31345;51.522;10.702;2023-07-31T06:06:48;98494.50;;;16.49;100.00
45621;BME280;31345;51.522;10.702;2023-07-31T06:09:20;98485.84;;;16.56;100.00
45621;BME280;31345;51.522;10.702;2023-07-31T06:11:53;98488.38;;;16.66;100.00
45621;BME280;31345;51.522;10.702;2023-07-31T06:14:26;98489.09;;;16.77;100.00
45621;BME280;31345;51.522;10.702;2023-07-31T06:16:59;98486.34;;;16.87;100.00
45621;BME280;31345;51.522;10.702;2023-07-31T06:19:32;98479.75;;;16.91;100.00
45621;BME280;31345;51.522;10.702;2023-07-31T06:22:05;98486.53;;;16.93;100.00
45621;BME280;31345;51.522;10.702;2023-07-31T06:24:38;98485.56;;;16.94;100.00
45621;BME280;31345;51.522;10.702;2023-07-31T06:27:10;98498.44;;;16.97;100.00
45621;BME280;31345;51.522;10.702;2023-07-31T06:29:43;98492.19;;;16.98;100.00
45621;BME280;31345;51.522;10.702;2023-07-31T06:32:17;98495.84;;;17.06;100.00
45621;BME280;31345;51.522;10.702;2023-07-31T06:34:49;98490.78;;;17.13;100.00
45621;BME280;31345;51.522;10.702;2023-07-31T06:37:22;98499.53;;;17.21;100.00
45621;BME280;31345;51.522;10.702;2023-07-31T06:39:55;98491.81;;;17.28;100.00
45621;BME280;31345;51.522;10.702;2023-07-31T06:42:27;98489.53;;;17.33;100.00
45621;BME280;31345;51.522;10.702;2023-07-31T06:45:00;98495.16;;;17.39;100.00
45621;BME280;31345;51.522;10.702;2023-07-31T06:47:34;98481.94;;;17.39;100.00
45621;BME280;31345;51.522;10.702;2023-07-31T06:50:08;98493.50;;;17.38;100.00
45621;BME280;31345;51.522;10.702;2023-07-31T06:52:40;98492.16;;;17.33;100.00
45621;BME280;31345;51.522;10.702;2023-07-31T06:55:18;98490.53;;;17.32;100.00
45621;BME280;31345;51.522;10.702;2023-07-31T06:57:54;98492.47;;;17.30;100.00
45621;BME280;31345;51.522;10.702;2023-07-31T07:00:27;98488.03;;;17.31;100.00
45621;BME280;31345;51.522;10.702;2023-07-31T07:03:01;98491.00;;;17.36;100.00
45621;BME280;31345;51.522;10.702;2023-07-31T07:05:33;98492.19;;;17.42;100.00
45621;BME280;31345;51.522;10.702;2023-07-31T07:08:06;98486.47;;;17.46;100.00
45621;BME280;31345;51.522;10.702;2023-07-31T07:10:39;98492.41;;;17.48;100.00
45621;BME280;31345;51.522;10.702;2023-07-31T07:13:11;98494.72;;;17.52;100.00
45621;BME280;31345;51.522;10.702;2023-07-31T07:15:48;98488.97;;;17.56;100.00
45621;BME280;31345;51.522;10.702;2023-07-31T07:18:22;98484.19;;;17.60;100.00
45621;BME280;31345;51.522;10.702;2023-07-31T07:20:54;98485.97;;;17.59;100.00
45621;BME280;31345;51.522;10.702;2023-07-31T07:23:28;98477.75;;;17.62;100.00
45621;BME280;31345;51.522;10.702;2023-07-31T07:26:01;98477.09;;;17.69;100.00
45621;BME280;31345;51.522;10.702;2023-07-31T07:28:33;98481.88;;;17.73;100.00
45621;BME280;31345;51.522;10.702;2023-07-31T07:31:08;98478.59;;;17.71;100.00
45621;BME280;31345;51.522;10.702;2023-07-31T07:33:42;98480.91;;;17.74;100.00
45621;BME280;31345;51.522;10.702;2023-07-31T07:36:15;98475.09;;;17.71;100.00
45621;BME280;31345;51.522;10.702;2023-07-31T07:38:48;98486.84;;;17.68;100.00
45621;BME280;31345;51.522;10.702;2023-07-31T07:41:20;98478.56;;;17.63;100.00
45621;BME280;31345;51.522;10.702;2023-07-31T07:43:53;98487.31;;;17.64;100.00
45621;BME280;31345;51.522;10.702;2023-07-31T07:46:25;98485.50;;;17.64;100.00
45621;BME280;31345;51.522;10.702;2023-07-31T07:48:59;98485.97;;;17.59;100.00
45621;BME280;31345;51.522;10.702;2023-07-31T07:51:32;98495.06;;;17.57;100.00
45621;BME280;31345;51.522;10.702;2023-07-31T07:54:04;98500.03;;;17.52;100.00
45621;BME280;31345;51.522;10.702;2023-07-31T07:56:37;98497.53;;;17.50;100.00
45621;BME280;31345;51.522;10.702;2023-07-31T07:59:10;98497.84;;;17.47;100.00
45621;BME280;31345;51.522;10.702;2023-07-31T08:01:43;98498.31;;;17.42;100.00
45621;BME280;31345;51.522;10.702;2023-07-31T08:04:16;98497.94;;;17.37;100.00
45621;BME280;31345;51.522;10.702;2023-07-31T08:06:49;98493.81;;;17.34;100.00
45621;BME280;31345;51.522;10.702;2023-07-31T08:09:22;98501.59;;;17.36;100.00
45621;BME280;31345;51.522;10.702;2023-07-31T08:11:54;98499.41;;;17.31;100.00
45621;BME280;31345;51.522;10.702;2023-07-31T08:14:29;98498.75;;;17.29;100.00
45621;BME280;31345;51.522;10.702;2023-07-31T08:17:01;98510.13;;;17.30;100.00
45621;BME280;31345;51.522;10.702;2023-07-31T08:19:31;98510.31;;;17.28;100.00
45621;BME280;31345;51.522;10.702;2023-07-31T08:22:03;98510.94;;;17.22;100.00
45621;BME280;31345;51.522;10.702;2023-07-31T08:24:36;98513.59;;;17.22;100.00
45621;BME280;31345;51.522;10.702;2023-07-31T08:27:08;98512.59;;;17.23;100.00
45621;BME280;31345;51.522;10.702;2023-07-31T08:29:41;98506.50;;;17.22;100.00
45621;BME280;31345;51.522;10.702;2023-07-31T08:32:14;98505.69;;;17.30;100.00
45621;BME280;31345;51.522;10.702;2023-07-31T08:34:48;98508.50;;;17.37;100.00
45621;BME280;31345;51.522;10.702;2023-07-31T08:37:21;98508.50;;;17.37;100.00
45621;BME280;31345;51.522;10.702;2023-07-31T08:39:54;98504.22;;;17.36;100.00
45621;BME280;31345;51.522;10.702;2023-07-31T08:42:27;98511.66;;;17.32;100.00
45621;BME280;31345;51.522;10.702;2023-07-31T08:45:01;98507.72;;;17.36;100.00
45621;BME280;31345;51.522;10.702;2023-07-31T08:47:36;98499.94;;;17.35;100.00
45621;BME280;31345;51.522;10.702;2023-07-31T08:50:10;98508.34;;;17.39;100.00
45621;BME280;31345;51.522;10.702;2023-07-31T08:52:46;98495.16;;;17.39;100.00
45621;BME280;31345;51.522;10.702;2023-07-31T08:55:19;98498.84;;;17.46;100.00
45621;BME280;31345;51.522;10.702;2023-07-31T08:57:55;98496.88;;;17.48;100.00
45621;BME280;31345;51.522;10.702;2023-07-31T09:00:29;98494.25;;;17.56;100.00
45621;BME280;31345;51.522;10.702;2023-07-31T09:03:21;98485.97;;;17.59;100.00
45621;BME280;31345;51.522;10.702;2023-07-31T09:05:57;98487.31;;;17.64;100.00
45621;BME280;31345;51.522;10.702;2023-07-31T09:08:31;98472.47;;;17.71;100.00
45621;BME280;31345;51.522;10.702;2023-07-31T09:11:03;98479.06;;;17.75;100.00
45621;BME280;31345;51.522;10.702;2023-07-31T09:13:37;98471.31;;;17.82;100.00
45621;BME280;31345;51.522;10.702;2023-07-31T09:16:12;98466.53;;;17.85;100.00
45621;BME280;31345;51.522;10.702;2023-07-31T09:18:54;98469.84;;;17.96;100.00
45621;BME280;31345;51.522;10.702;2023-07-31T09:21:29;98467.72;;;18.08;100.00
45621;BME280;31345;51.522;10.702;2023-07-31T09:24:02;98465.91;;;18.17;100.00
45621;BME280;31345;51.522;10.702;2023-07-31T09:26:36;98470.03;;;18.27;100.00
45621;BME280;31345;51.522;10.702;2023-07-31T09:29:19;98458.75;;;18.34;100.00
45621;BME280;31345;51.522;10.702;2023-07-31T09:31:52;98468.38;;;18.43;100.00
45621;BME280;31345;51.522;10.702;2023-07-31T09:34:29;98463.56;;;18.38;100.00
45621;BME280;31345;51.522;10.702;2023-07-31T09:37:04;98452.16;;;18.46;100.00
45621;BME280;31345;51.522;10.702;2023-07-31T09:39:45;98446.16;;;18.52;100.00
45621;BME280;31345;51.522;10.702;2023-07-31T09:42:25;98444.84;;;18.65;100.00
45621;BME280;31345;51.522;10.702;2023-07-31T09:45:07;98443.50;;;18.69;100.00
45621;BME280;31345;51.522;10.702;2023-07-31T09:47:35;98439.88;;;18.70;100.00
45621;BME280;31345;51.522;10.702;2023-07-31T09:50:08;98448.16;;;18.67;100.00
45621;BME280;31345;51.522;10.702;2023-07-31T09:52:43;98432.91;;;18.77;100.00
45621;BME280;31345;51.522;10.702;2023-07-31T09:55:15;98424.06;;;18.94;100.00
45621;BME280;31345;51.522;10.702;2023-07-31T09:57:49;98432.28;;;19.07;100.00
45621;BME280;31345;51.522;10.702;2023-07-31T10:00:22;98429.94;;;19.21;99.60
45621;BME280;31345;51.522;10.702;2023-07-31T10:02:58;98415.63;;;19.30;99.71
45621;BME280;31345;51.522;10.702;2023-07-31T10:05:34;98428.09;;;19.21;98.45
45621;BME280;31345;51.522;10.702;2023-07-31T10:08:10;98422.78;;;19.21;98.06
45621;BME280;31345;51.522;10.702;2023-07-31T10:10:46;98428.66;;;19.08;97.77
45621;BME280;31345;51.522;10.702;2023-07-31T10:13:19;98424.03;;;19.02;97.80
45621;BME280;31345;51.522;10.702;2023-07-31T10:15:54;98417.91;;;19.01;98.53
45621;BME280;31345;51.522;10.702;2023-07-31T10:18:27;98416.06;;;19.10;98.97
45621;BME280;31345;51.522;10.702;2023-07-31T10:21:01;98411.72;;;19.17;97.17
45621;BME280;31345;51.522;10.702;2023-07-31T10:23:36;98419.16;;;19.22;96.62
45621;BME280;31345;51.522;10.702;2023-07-31T10:26:11;98398.75;;;19.23;96.65
45621;BME280;31345;51.522;10.702;2023-07-31T10:28:46;98418.38;;;19.13;97.63
45621;BME280;31345;51.522;10.702;2023-07-31T10:31:19;98418.19;;;19.15;95.74
45621;BME280;31345;51.522;10.702;2023-07-31T10:33:54;98410.88;;;19.17;96.11
45621;BME280;31345;51.522;10.702;2023-07-31T10:36:28;98398.53;;;19.33;95.80
45621;BME280;31345;51.522;10.702;2023-07-31T10:39:03;98395.84;;;19.41;95.38
45621;BME280;31345;51.522;10.702;2023-07-31T10:41:36;98403.09;;;19.47;94.76
45621;BME280;31345;51.522;10.702;2023-07-31T10:44:13;98403.72;;;19.49;95.09
45621;BME280;31345;51.522;10.702;2023-07-31T10:46:45;98404.41;;;19.51;95.71
45621;BME280;31345;51.522;10.702;2023-07-31T10:49:21;98401.88;;;19.58;93.78
45621;BME280;31345;51.522;10.702;2023-07-31T10:51:55;98399.88;;;19.60;93.98
45621;BME280;31345;51.522;10.702;2023-07-31T10:54:29;98402.28;;;19.70;93.88
45621;BME280;31345;51.522;10.702;2023-07-31T10:57:02;98399.59;;;19.78;93.11
45621;BME280;31345;51.522;10.702;2023-07-31T10:59:50;98398.81;;;19.93;93.16
45621;BME280;31345;51.522;10.702;2023-07-31T11:02:25;98393.25;;;20.03;93.39
45621;BME280;31345;51.522;10.702;2023-07-31T11:05:07;98387.75;;;20.04;91.91
45621;BME280;31345;51.522;10.702;2023-07-31T11:07:49;98393.25;;;20.03;89.94
45621;BME280;31345;51.522;10.702;2023-07-31T11:10:23;98387.06;;;19.87;90.20
45621;BME280;31345;51.522;10.702;2023-07-31T11:12:56;98390.56;;;19.88;90.41
45621;BME280;31345;51.522;10.702;2023-07-31T11:15:29;98392.22;;;19.89;91.99
45621;BME280;31345;51.522;10.702;2023-07-31T11:17:57;98384.59;;;19.86;90.14
45621;BME280;31345;51.522;10.702;2023-07-31T11:20:30;98381.69;;;19.96;93.71
45621;BME280;31345;51.522;10.702;2023-07-31T11:23:06;98382.03;;;19.77;90.67
45621;BME280;31345;51.522;10.702;2023-07-31T11:25:40;98367.47;;;19.73;89.56
45621;BME280;31345;51.522;10.702;2023-07-31T11:28:15;98378.97;;;19.65;90.67
45621;BME280;31345;51.522;10.702;2023-07-31T11:30:48;98375.19;;;19.83;91.41
45621;BME280;31345;51.522;10.702;2023-07-31T11:33:16;98363.53;;;20.08;88.95
45621;BME280;31345;51.522;10.702;2023-07-31T11:35:48;98362.06;;;20.20;88.44
45621;BME280;31345;51.522;10.702;2023-07-31T11:38:21;98363.34;;;20.24;89.07
45621;BME280;31345;51.522;10.702;2023-07-31T11:40:58;98369.94;;;20.13;87.74
45621;BME280;31345;51.522;10.702;2023-07-31T11:43:26;98368.34;;;20.04;89.30
45621;BME280;31345;51.522;10.702;2023-07-31T11:45:59;98354.91;;;20.05;88.62
45621;BME280;31345;51.522;10.702;2023-07-31T11:48:36;98347.59;;;20.08;88.98
45621;BME280;31345;51.522;10.702;2023-07-31T11:51:10;98337.66;;;20.25;87.38
45621;BME280;31345;51.522;10.702;2023-07-31T11:53:44;98342.97;;;20.40;88.36
45621;BME280;31345;51.522;10.702;2023-07-31T11:56:20;98343.03;;;20.47;85.91
45621;BME280;31345;51.522;10.702;2023-07-31T11:58:57;98344.25;;;20.44;85.83
45621;BME280;31345;51.522;10.702;2023-07-31T12:01:24;98342.03;;;20.48;85.92
45621;BME280;31345;51.522;10.702;2023-07-31T12:03:54;98336.66;;;20.56;86.28
45621;BME280;31345;51.522;10.702;2023-07-31T12:06:33;98346.63;;;20.39;85.85
45621;BME280;31345;51.522;10.702;2023-07-31T12:09:03;98335.00;;;20.25;86.60
45621;BME280;31345;51.522;10.702;2023-07-31T12:11:44;98346.41;;;20.10;86.59
45621;BME280;31345;51.522;10.702;2023-07-31T12:14:21;98346.84;;;19.99;88.22
45621;BME280;31345;51.522;10.702;2023-07-31T12:16:54;98347.63;;;19.84;89.33
45621;BME280;31345;51.522;10.702;2023-07-31T12:19:27;98344.44;;;19.74;89.12
45621;BME280;31345;51.522;10.702;2023-07-31T12:22:01;98346.59;;;19.70;87.97
45621;BME280;31345;51.522;10.702;2023-07-31T12:24:28;98336.72;;;19.64;88.33
45621;BME280;31345;51.522;10.702;2023-07-31T12:27:08;98338.38;;;19.65;87.38
45621;BME280;31345;51.522;10.702;2023-07-31T12:29:36;98326.22;;;19.71;85.93
45621;BME280;31345;51.522;10.702;2023-07-31T12:32:24;98324.75;;;19.68;87.19
45621;BME280;31345;51.522;10.702;2023-07-31T12:35:00;98329.03;;;19.69;87.58
45621;BME280;31345;51.522;10.702;2023-07-31T12:37:34;98322.97;;;19.60;87.59
45621;BME280;31345;51.522;10.702;2023-07-31T12:40:07;98330.16;;;19.51;88.10
45621;BME280;31345;51.522;10.702;2023-07-31T12:42:42;98331.69;;;19.46;88.38
45621;BME280;31345;51.522;10.702;2023-07-31T12:45:15;98321.44;;;19.42;88.03
45621;BME280;31345;51.522;10.702;2023-07-31T12:47:47;98315.31;;;19.42;88.19
45621;BME280;31345;51.522;10.702;2023-07-31T12:50:20;98314.09;;;19.53;86.13
45621;BME280;31345;51.522;10.702;2023-07-31T12:52:53;98315.63;;;19.47;88.65
45621;BME280;31345;51.522;10.702;2023-07-31T12:55:26;98306.75;;;19.55;88.92
45621;BME280;31345;51.522;10.702;2023-07-31T12:58:00;98305.25;;;19.61;88.34
45621;BME280;31345;51.522;10.702;2023-07-31T13:00:33;98304.25;;;19.62;88.01
45621;BME280;31345;51.522;10.702;2023-07-31T13:03:01;98307.44;;;19.57;87.59
45621;BME280;31345;51.522;10.702;2023-07-31T13:05:34;98295.97;;;19.57;86.29
45621;BME280;31345;51.522;10.702;2023-07-31T13:08:07;98288.88;;;19.57;88.23
45621;BME280;31345;51.522;10.702;2023-07-31T13:10:39;98294.34;;;19.55;87.86
45621;BME280;31345;51.522;10.702;2023-07-31T13:13:13;98287.72;;;19.60;85.59
45621;BME280;31345;51.522;10.702;2023-07-31T13:15:46;98288.16;;;19.63;87.38